Media Club - Paul van Dyk (Matthias Paul) (MP3, Photo, Lyrics, Covers)
Legal Info  
newsabout ushelp (faq)searchdirectorylinkssoftwarechartsSwitch Language
 A   B   C   D   E   F   G   H   I   J   K   L   M   N   O   P   Q   R   S   T   U   V   W   X   Y   Z   0...9 
                                                                                  
directory
border=0

  Paul van Dyk

Paul van Dyk
  Band/Artist:  Paul van Dyk
Country:  Germany
Genre:  Dance;  Electronica;  Pop
Style:
URL's:  www.PaulVanDyk.com
 www.facebook.com/PVD
 myspace.com/PaulVanDyk
 www.discogs.com/artist/1049-Paul-van-Dyk
find track in this albums
Discography:
year title tracks added
(updated)
 Albums
2020 Escape Reality 2020 16 03.06.2020
2018 Music Rescues Me 2018 15 11.12.2018
2017 From Then On 2017 14 07.02.2018
2012 Evolution 2012 15 04.04.2012
14.04.2012
2012 Evolution (Deluxe Edition: Bonus CD) 2012 3 14.04.2012
2012 Evolution (Deluxe Package USB App Pass) 2012 8 25.04.2016
2012 Evolution (Extended Versions) 2012 10 25.04.2016
2008 Hands On In Between (CD 1) 2008 8 25.04.2016
2008 Hands On In Between (CD 2) 2008 7 25.04.2016
2007 In Between 2007 17 22.08.2007
2007 In Between (Limited Double Edition) [CD 1] 2007 17 25.04.2016
2007 In Between (Limited Double Edition) [CD 2] 2007 8 25.04.2016
2007 Special Asian Edition (Bonus CD) 2007 13 25.04.2016
2004 Perfect Remixes Vol. 2 2004 10 19.01.2007
2004 Re-Reflections In The Mix (The Remix Album) 2004 11 25.04.2016
2004 Reflections (Special Edition) [CD 1] 2004 13 25.04.2016
2004 Reflections (Special Edition) [CD 2] 2004 8 25.04.2016
2003 Reflections 2003 13 09.09.2003
2003 Global 2003 13 25.04.2016
2002 Zurdo (Musica Original De La Pelicula) 2002 11 25.04.2016
2000 Out There And Back (CD 1) 2000 12 25.04.2016
2000 Out There And Back (CD 2) 2000 8 25.04.2016
2000 Out There And Back (Deluxe Edition) [CD 1] 2000 12 25.04.2016
2000 Out There And Back (Deluxe Edition) [CD 2] 2000 11 25.04.2016
1998 45 RPM (Extended Version) 1998 12 25.04.2016
1998 Seven Ways (CD 1) 1998 11 25.04.2016
1998 Seven Ways (CD 2) 1998 10 25.04.2016
1996 Seven Ways (CD 1) 1996 11 04.03.2003
1996 Seven Ways (CD 2) 1996 10 04.03.2003
1996 Seven Ways (Special Limited Edition Double CD) [CD 1] 1996 11 25.04.2016
1996 Seven Ways (Special Limited Edition Double CD) [CD 2] 1996 9 25.04.2016
1994 45 RPM (CD 1) 1994 12 25.04.2016
1994 45 RPM (CD 2: 45 Remixes Per Minute) 1994 10 25.04.2016
 Bootlegs
2006 Fritz Soundgarden 2006 1 20.06.2006
 Singles, Mini-CD's, EP's
2020 Duality (Single) 2020 2 23.08.2021
2020 First Contact (feat. Kinetica) (Single) 2020 2 23.08.2021
2019 Parallel Dimension (with Elated) (Single) 2019 2 23.08.2021
2019 Moments With You (feat. Rafael Osmo) (EP) 2019 3 23.08.2021
2019 Aurora (feat. Steve Dekay) (Single) 2019 2 23.08.2021
2019 Amanecer / Solar Snapshot (feat. Lostly & Chris Bekker) (EP) 2019 3 23.08.2021
2019 Shine Ibiza Anthem 2019 (feat. Alex M.O.R.P.H.) (Single) 2019 1 23.08.2021
2019 Accelerator (feat. Jordan Suckley) (Single) 2019 2 23.08.2021
2019 Galaxy (feat. Vini Vici) (Single) 2019 1 23.08.2021
2019 Future Memories (feat. Saad Ayub) (Single) 2019 2 23.08.2021
2018 Vortex (feat. James Cottle) (Single) 2018 1 23.08.2021
2018 SHINE Ibiza Anthem 2018 (Single) 2018 2 23.08.2021
2018 Music Rescues Me (feat. Plumb) (Single) 2018 2 23.08.2021
2017 Escape Reality Tonight (feat. Emanuele Braveri & Rebecca Louise Burch) (Single) 2017 2 23.08.2021
2017 Stronger Together (with Pierre Pienaar) (Single) 2017 2 23.08.2021
2016 Everyone Needs Love (feat. Ronald van Gelderen feat. Gaelan & Eric Lumiere) (EP) 2016 4 23.08.2021
2016 Everyone Needs Love (feat. Ronald van Gelderen, Gaelan & Eric Lumiere) (Single) 2016 1 23.08.2021
2016 Berlinition (feat. Chris Bekker & Chris Montana) (EP) 2016 6 23.08.2021
2016 Together Again (feat. Sue McLaren & Farhad Mahdavi) (Single) 2016 2 23.08.2021
2015 What We're Livin For (feat. Michael Tsukerman, Patrick Droney) (Single) 2015 1 23.08.2021
2015 Louder (feat. Roger Shah & Daphne Khoo) (Remixes) (EP) 2015 5 23.08.2021
2015 Louder (feat. Roger Shah & Daphne Khoo) (Single) 2015 1 23.08.2021
2015 Only In A Dream (with Jessus, Adham Ashraf & Tricia McTeague) (EP) 2015 3 23.08.2021
2015 Guardian (Remixes) (with Aly & Fila feat. Sue McLaren) (EP) 2015 4 23.08.2021
2015 Lights (feat. Sue McLaren) (EP) 2015 4 23.08.2021
2015 For You (feat. Genix) (Single) 2015 1 23.08.2021
2015 The Politics Of Dancing 3: Remixes (feat. Jordan Suckley) (EP) 2015 3 23.08.2021
2014 Come With Me (We Are One) (Split) 2014 1 14.10.2014
2014 Only In A Dream (with Jessus, Adham Ashraf & Tricia McTeague) (Remixes EP) 2014 6 23.08.2021
2014 Guardian (with Aly & Fila feat. Sue McLaren) (Single) 2014 1 23.08.2021
2014 Eternity (feat. Adam Young) (Single) 2014 1 23.08.2021
2014 Crush (Las Salinas Remix) (feat. Second Sun) (Single) 2014 1 23.08.2021
2014 Come With Me (We Are One) (feat. Ummet Ozcan) (Single) 2014 2 23.08.2021
2012 Verano (Single) (Split) 2012 3 07.04.2012
2012 The Ocean (Feat.) 2012
The Ocean (Feat.) [Featuring Arty]
5 30.06.2014
2008 In Between 2008 8 28.08.2008
2007 White Lies 2007 3 30.07.2007
2007 Let Go (Maxi-Single) 2007 4 21.11.2011
2004 Crush (Remixes - EP) (feat.) 2004 6 20.03.2004
2004 Wir Sind Wir (Wunder Von Bern Special Edition) 2004 3 29.12.2008
2001 Columbia (EP) 2001 3 01.08.2002
 Live Albums
2010 10 Years of Vandit Records - Live at Escape, Amsterdam (22-10-2010: CD 1) 2010 17 25.10.2010
2010 10 Years of Vandit Records - Live at Escape, Amsterdam (22-10-2010: CD 2) 2010 16 25.10.2010
2010 Raveline Mix Sessions 021 2010 1 25.04.2016
2004 Vandit: The Sessions 03 2004 14 25.04.2016
2000 May Day 2K (Live Set by Paul van Dyk) 2000 1 25.04.2016
 Compilations, Remixes
2013 (R)Evolution: The Remixes (CD 1) 2013 8 28.02.2013
2013 (R)Evolution: The Remixes (CD 2) 2013 9 28.02.2013
2011 Vonyc Sessions 2011 (CD 1) 2011 15 07.04.2012
2011 Vonyc Sessions 2011 (CD 2) 2011 15 07.04.2012
2011 Vonyc Sessions 2010 (presented by Paul van Dyk) [CD 1] 2011 16 25.04.2016
2011 Vonyc Sessions 2010 (presented by Paul van Dyk) [CD 2] 2011 20 25.04.2016
2011 Energy Mastermix, Vol. 3 (CD 1) 2011 21 25.04.2016
2011 Energy Mastermix, Vol. 3 (CD 2) 2011 19 25.04.2016
2010 Gatecrasher Anthems: Paul Van Dyk (CD 1) 2010 17 25.04.2016
2010 Gatecrasher Anthems: Paul Van Dyk (CD 2) 2010 18 25.04.2016
2010 Gatecrasher Anthems: Paul Van Dyk (CD 3) 2010 20 25.04.2016
2009 The Best Of Paul Van Dyk:  Volume (The Productions) (CD 1) 2009 16 02.06.2009
2009 The Best Of Paul Van Dyk:  Volume (The Remixes Part 1) (CD 2) 2009 12 02.06.2009
2009 The Best Of Paul Van Dyk:  Volume (The Remixes Part 2) (CD 3) 2009 12 02.06.2009
2009 The Best Of, Volume II (CD 1) 2009 15 25.04.2016
2009 The Best Of, Volume II (CD 2) 2009 17 25.04.2016
2009 Vonyc Sessions 2009 (presented by Paul van Dyk) [CD 1] 2009 16 25.04.2016
2009 Vonyc Sessions 2009 (presented by Paul van Dyk) [CD 2] 2009 15 25.04.2016
2008 Vonyc Sessions 096 (06.26.2008) 2008 1 10.07.2008
2008 Paul van Dyk - Cream Ibiza (CD 1) 2008 11 25.04.2016
2008 Paul van Dyk - Cream Ibiza (CD 2) 2008 9 25.04.2016
2008 Paul van Dyk - Cream Ibiza (CD 3) 2008 9 25.04.2016
2008 Paul van Dyk - Cream Ibiza (CD 4: continuous DJ mix, part 1) 2008 1 25.04.2016
2008 Paul van Dyk - Cream Ibiza (CD 5) 2008 7 25.04.2016
2008 Paul van Dyk - Cream Ibiza (CD 6) 2008 7 25.04.2016
2008 Paul van Dyk - Cream Ibiza (CD 8: continuous DJ mix, part 2) 2008 1 25.04.2016
2008 Paul van Dyk - Cream Ibiza (CD 7) 2008 7 25.04.2016
2006 Victory Mix 2006 12 26.12.2006
2006 10 Years GMF Berlin Compilation (CD 1) 2006 17 25.04.2016
2006 10 Years GMF Berlin Compilation (CD 2) 2006 16 25.04.2016
2005 Dance Department (538) 07-05 2005 1 25.05.2005
2005 Mixmag pres. Paul van Dyk 2005 12 25.04.2016
2005 The Politics Of Dancing 2 (CD 1) 2005 17 25.04.2016
2005 The Politics Of Dancing 2 (CD 2) 2005 15 25.04.2016
2005 The Champions Mix (Mixed by Paul van Dyk) 2005 12 25.04.2016
2004 Re-Reflections 2004 11 05.09.2004
2003 Paul van Dyk (legendary DJ in the hottest mix!) 2003 13 25.04.2016
2001 Silent Angel (vs. Delerium) 2001 1 09.04.2002
2001 The Politics Of Dancing (CD1) 2001 17 02.07.2004
2001 The Politics Of Dancing (CD2) 2001 16 02.07.2004
1999 Muzik Magazine pres. Paul Van Dyk - 60 Minute Mix 1999 11 25.04.2016
1998 Vorsprung Dyk Technik (Remixes 92-98)(CD1) 1998 11 17.01.2003
1998 Vorsprung Dyk Technik (Remixes 92-98)(CD2) 1998 11 17.01.2003
1998 Vorsprung Dyk Technik (Remixes 92-98)(CD3) 1998 11 17.01.2003
1997 Paul van Dyk - Perspective (A Collection Of Remixes 1992-1997) [CD 1] 1997 11 25.04.2016
1997 Paul van Dyk - Perspective (A Collection Of Remixes 1992-1997) [CD 2] 1997 11 25.04.2016
1993 X-Mix-1: The MFS-Trip 1993 15 25.04.2016
 Tributes
L 0.00 / D 0.00 2004 2 32025.11.2017
L 0.00 / D 0.00 2008 1 var22.06.2015
L 0.00 / D 0.00 2008 1 var22.06.2015
L 0.00 / D 0.00 2009 2 32022.06.2015
L 0.00 / D 0.00 2013 1 var15.11.2015
L 0.00 / D 0.00 2013 3 32030.07.2014
L 0.00 / D 0.00 2014 2 32017.10.2015
L 0.00 / D 0.00 2014 1 var26.02.2016
L 0.00 / D 0.00 2015 2 32011.09.2015
L 0.00 / D 0.00 2016 1 var27.06.2017
Status: Guest
LOOK ALSO
more info
HISTORY OF ADDITIONS
Mn Tu We Th Fr Sa Su
     1  2  3  4  5
 6  7  8  9  10  11  12
 13  14  15  16  17  18  19
 20  21  22  23  24  25  26
 27  28  29  30  31    
go top

Media ClubCreated by TDG